SBOSBO ARN / ESSA
Speedbird OnlineSpeedbird Online ARN / ESSA

Stockholm-Arlanda Airport
14:37 12.3°C

Location Stockholm, Sweden
Latitude: 59.651901245117
Longitude: 17.918600082397
Local Time 14:37 on 12 Apr 2024
UTC +2 hours (Europe/Stockholm)
Currency £1 equals SEK 13.48
METAR ESSA 121220Z 23014KT CAVOK 12/04 Q1016 NOSIG
TAF TAF ESSA 121130Z 1212/1312 24009KT CAVOK PROB40 1216/1219 BKN008 BECMG 1219/1221 BKN004 TEMPO 1221/1308 2000 BR BKN010 BECMG 1308/1310 BKN015 PROB40 1310/1312 BKN009
Weather As Of 12 Apr 2024 14:32
Description Clear sky
Wind 15 km/h from South (200°)
Cloud Cover 0%
Precipitation Rain: none, Snow: none
Sunrise 05:40
Sunset 19:57
NOTAM 16 active NOTAM
Rotations During the last 90 days there were
318 flights from LHR
45 flights from HEL
317 flights to LHR
41 flights to HEL
Lounges Pearl lounge/T5, 5
Pearl Lounge T2, Terminal 2
Web Airport Website | Wikipedia
Codes IATA: ARN
ICAO: ESSA
Altitude 42 Meter / 137 Feet
Distance 1,431 KM / 889 Miles
from London.
Runways
RunwayLength (m)Surface
01L3301Asphalt
01R2500Asphalt
082500Asphalt
19L2500Asphalt
19R3301Asphalt
262500Asphalt
Radio
TypeDescriptionFrequency
APPSTOCKHOLM CON123.75
ATISATIS119
CLDCLNC DEL121.825
GNDGND121.7
PMSVMET OFFICE122.6
TWRTWR118.5
Live ATC



Support Speedbird Online

© 2017-2024 Speedbird Online